sensor_id;sensor_type;location;lat;lon;timestamp;pressure;altitude;pressure_sealevel;temperature;humidity
4149;BME280;2088;51.032;7.082;2022-09-17T00:01:18;48532.13;;;-142.28;97.50
4149;BME280;2088;51.032;7.082;2022-09-17T00:03:48;48543.75;;;-142.28;97.29
4149;BME280;2088;51.032;7.082;2022-09-17T00:06:16;48516.66;;;-142.28;97.55
4149;BME280;2088;51.032;7.082;2022-09-17T00:08:43;48536.00;;;-142.28;97.49
4149;BME280;2088;51.032;7.082;2022-09-17T00:11:11;48530.22;;;-142.28;98.31
4149;BME280;2088;51.032;7.082;2022-09-17T00:13:40;48532.13;;;-142.28;97.87
4149;BME280;2088;51.032;7.082;2022-09-17T00:16:08;48539.88;;;-142.28;97.29
4149;BME280;2088;51.032;7.082;2022-09-17T00:18:34;48539.88;;;-142.28;97.19
4149;BME280;2088;51.032;7.082;2022-09-17T00:21:05;48532.13;;;-142.28;97.72
4149;BME280;2088;51.032;7.082;2022-09-17T00:23:31;48526.34;;;-142.28;97.77
4149;BME280;2088;51.032;7.082;2022-09-17T00:25:58;48512.78;;;-142.28;98.22
4149;BME280;2088;51.032;7.082;2022-09-17T00:28:25;48514.72;;;-142.28;97.94
4149;BME280;2088;51.032;7.082;2022-09-17T00:30:53;48505.03;;;-142.28;98.04
4149;BME280;2088;51.032;7.082;2022-09-17T00:33:19;48522.47;;;-142.28;98.49
4149;BME280;2088;51.032;7.082;2022-09-17T00:35:56;48536.00;;;-142.28;98.25
4149;BME280;2088;51.032;7.082;2022-09-17T00:38:23;48563.09;;;-142.28;98.82
4149;BME280;2088;51.032;7.082;2022-09-17T00:40:49;48545.69;;;-142.28;99.01
4149;BME280;2088;51.032;7.082;2022-09-17T00:43:32;48543.75;;;-142.28;98.52
4149;BME280;2088;51.032;7.082;2022-09-17T00:46:00;48561.16;;;-142.28;98.50
4149;BME280;2088;51.032;7.082;2022-09-17T00:48:27;48566.97;;;-142.28;99.06
4149;BME280;2088;51.032;7.082;2022-09-17T00:50:55;48524.41;;;-142.28;99.04
4149;BME280;2088;51.032;7.082;2022-09-17T00:53:22;48547.63;;;-142.28;98.66
4149;BME280;2088;51.032;7.082;2022-09-17T00:55:52;48545.69;;;-142.28;98.34
4149;BME280;2088;51.032;7.082;2022-09-17T00:58:22;48524.41;;;-142.28;99.11
4149;BME280;2088;51.032;7.082;2022-09-17T01:00:50;48580.53;;;-142.28;99.19
4149;BME280;2088;51.032;7.082;2022-09-17T01:03:18;48543.75;;;-142.28;99.05
4149;BME280;2088;51.032;7.082;2022-09-17T01:05:48;48574.72;;;-142.28;99.38
4149;BME280;2088;51.032;7.082;2022-09-17T01:08:20;48576.66;;;-142.28;99.43
4149;BME280;2088;51.032;7.082;2022-09-17T01:11:08;48590.19;;;-142.28;100.00
4149;BME280;2088;51.032;7.082;2022-09-17T01:13:49;48597.94;;;-142.28;100.00
4149;BME280;2088;51.032;7.082;2022-09-17T01:16:19;48609.56;;;-142.28;100.00
4149;BME280;2088;51.032;7.082;2022-09-17T01:18:59;48623.09;;;-142.28;100.00
4149;BME280;2088;51.032;7.082;2022-09-17T01:21:38;48628.91;;;-142.28;100.00
4149;BME280;2088;51.032;7.082;2022-09-17T01:24:43;48636.66;;;-142.28;100.00
4149;BME280;2088;51.032;7.082;2022-09-17T01:27:43;48667.63;;;-142.28;100.00
4149;BME280;2088;51.032;7.082;2022-09-17T01:30:38;48702.47;;;-142.28;100.00
4149;BME280;2088;51.032;7.082;2022-09-17T01:33:14;48694.72;;;-142.28;100.00
4149;BME280;2088;51.032;7.082;2022-09-17T01:35:48;48745.03;;;-142.28;100.00
4149;BME280;2088;51.032;7.082;2022-09-17T01:38:24;48779.88;;;-142.28;100.00
4149;BME280;2088;51.032;7.082;2022-09-17T01:40:55;48810.84;;;-142.28;100.00
4149;BME280;2088;51.032;7.082;2022-09-17T01:43:32;48849.56;;;-142.28;100.00
4149;BME280;2088;51.032;7.082;2022-09-17T01:46:06;48859.25;;;-142.28;100.00
4149;BME280;2088;51.032;7.082;2022-09-17T01:48:38;48925.06;;;-142.28;100.00
4149;BME280;2088;51.032;7.082;2022-09-17T01:51:09;48919.25;;;-142.28;100.00
4149;BME280;2088;51.032;7.082;2022-09-17T01:53:40;48954.09;;;-142.28;100.00
4149;BME280;2088;51.032;7.082;2022-09-17T01:56:09;48988.94;;;-142.28;100.00
4149;BME280;2088;51.032;7.082;2022-09-17T01:58:42;48996.69;;;-142.28;100.00
4149;BME280;2088;51.032;7.082;2022-09-17T02:01:15;49000.53;;;-142.28;100.00
4149;BME280;2088;51.032;7.082;2022-09-17T02:03:49;49016.03;;;-142.28;100.00
4149;BME280;2088;51.032;7.082;2022-09-17T02:06:20;49004.41;;;-142.28;100.00
4149;BME280;2088;51.032;7.082;2022-09-17T02:08:51;49019.91;;;-142.28;100.00
4149;BME280;2088;51.032;7.082;2022-09-17T02:11:19;49017.97;;;-142.28;100.00
4149;BME280;2088;51.032;7.082;2022-09-17T02:13:50;49025.72;;;-142.28;100.00
4149;BME280;2088;51.032;7.082;2022-09-17T02:16:23;49025.72;;;-142.28;100.00
4149;BME280;2088;51.032;7.082;2022-09-17T02:18:55;49039.25;;;-142.28;100.00
4149;BME280;2088;51.032;7.082;2022-09-17T02:21:28;49016.03;;;-142.28;100.00
4149;BME280;2088;51.032;7.082;2022-09-17T02:24:00;49039.25;;;-142.28;100.00
4149;BME280;2088;51.032;7.082;2022-09-17T02:26:34;49052.81;;;-142.28;100.00
4149;BME280;2088;51.032;7.082;2022-09-17T02:29:07;49037.31;;;-142.28;100.00
4149;BME280;2088;51.032;7.082;2022-09-17T02:31:36;49081.84;;;-142.28;100.00
4149;BME280;2088;51.032;7.082;2022-09-17T02:34:06;49081.84;;;-142.28;100.00
4149;BME280;2088;51.032;7.082;2022-09-17T02:36:33;49066.38;;;-142.28;100.00
4149;BME280;2088;51.032;7.082;2022-09-17T02:39:02;49035.38;;;-142.28;100.00
4149;BME280;2088;51.032;7.082;2022-09-17T02:41:37;49095.41;;;-142.28;100.00
4149;BME280;2088;51.032;7.082;2022-09-17T02:44:16;49105.06;;;-142.28;100.00
4149;BME280;2088;51.032;7.082;2022-09-17T02:47:07;49110.88;;;-142.28;100.00
4149;BME280;2088;51.032;7.082;2022-09-17T02:49:52;49099.28;;;-142.28;100.00
4149;BME280;2088;51.032;7.082;2022-09-17T02:52:31;49105.06;;;-142.28;100.00
4149;BME280;2088;51.032;7.082;2022-09-17T02:55:08;49107.00;;;-142.28;100.00
4149;BME280;2088;51.032;7.082;2022-09-17T02:57:40;49128.31;;;-142.28;100.00
4149;BME280;2088;51.032;7.082;2022-09-17T03:00:13;49120.56;;;-142.28;100.00
4149;BME280;2088;51.032;7.082;2022-09-17T03:02:44;49112.81;;;-142.28;100.00
4149;BME280;2088;51.032;7.082;2022-09-17T03:05:12;49134.13;;;-142.28;100.00
4149;BME280;2088;51.032;7.082;2022-09-17T03:07:39;49122.50;;;-142.28;100.00
4149;BME280;2088;51.032;7.082;2022-09-17T03:10:06;49134.13;;;-142.28;100.00
4149;BME280;2088;51.032;7.082;2022-09-17T03:12:33;49130.25;;;-142.28;100.00
4149;BME280;2088;51.032;7.082;2022-09-17T03:15:00;49151.53;;;-142.28;100.00
4149;BME280;2088;51.032;7.082;2022-09-17T03:17:27;49151.53;;;-142.28;100.00
4149;BME280;2088;51.032;7.082;2022-09-17T03:19:55;49143.78;;;-142.28;100.00
4149;BME280;2088;51.032;7.082;2022-09-17T03:22:21;49159.28;;;-142.28;100.00
4149;BME280;2088;51.032;7.082;2022-09-17T03:24:48;49147.66;;;-142.28;100.00
4149;BME280;2088;51.032;7.082;2022-09-17T03:27:15;49163.16;;;-142.28;100.00
4149;BME280;2088;51.032;7.082;2022-09-17T03:29:41;49194.13;;;-142.28;100.00
4149;BME280;2088;51.032;7.082;2022-09-17T03:32:07;49182.50;;;-142.28;100.00
4149;BME280;2088;51.032;7.082;2022-09-17T03:34:34;49184.44;;;-142.28;100.00
4149;BME280;2088;51.032;7.082;2022-09-17T03:37:02;49211.53;;;-142.28;100.00
4149;BME280;2088;51.032;7.082;2022-09-17T03:39:28;49196.06;;;-142.28;100.00
4149;BME280;2088;51.032;7.082;2022-09-17T03:41:55;49172.84;;;-142.28;100.00
4149;BME280;2088;51.032;7.082;2022-09-17T03:44:21;49178.63;;;-142.28;100.00
4149;BME280;2088;51.032;7.082;2022-09-17T03:46:48;49176.69;;;-142.28;100.00
4149;BME280;2088;51.032;7.082;2022-09-17T03:49:14;49149.59;;;-142.28;100.00
4149;BME280;2088;51.032;7.082;2022-09-17T03:51:41;49165.09;;;-142.28;100.00
4149;BME280;2088;51.032;7.082;2022-09-17T03:54:08;49149.59;;;-142.28;100.00
4149;BME280;2088;51.032;7.082;2022-09-17T03:56:35;49157.34;;;-142.28;100.00
4149;BME280;2088;51.032;7.082;2022-09-17T03:59:01;49192.19;;;-142.28;100.00
4149;BME280;2088;51.032;7.082;2022-09-17T04:01:28;49170.91;;;-142.28;100.00
4149;BME280;2088;51.032;7.082;2022-09-17T04:03:55;49159.28;;;-142.28;100.00
4149;BME280;2088;51.032;7.082;2022-09-17T04:06:21;49136.06;;;-142.28;100.00
4149;BME280;2088;51.032;7.082;2022-09-17T04:08:48;49147.66;;;-142.28;100.00
4149;BME280;2088;51.032;7.082;2022-09-17T04:11:15;49139.91;;;-142.28;100.00
4149;BME280;2088;51.032;7.082;2022-09-17T04:13:42;49182.50;;;-142.28;100.00
4149;BME280;2088;51.032;7.082;2022-09-17T04:16:08;49186.38;;;-142.28;100.00
4149;BME280;2088;51.032;7.082;2022-09-17T04:18:35;49215.41;;;-142.28;100.00
4149;BME280;2088;51.032;7.082;2022-09-17T04:21:02;49219.28;;;-142.28;100.00
4149;BME280;2088;51.032;7.082;2022-09-17T04:23:28;49194.13;;;-142.28;100.00
4149;BME280;2088;51.032;7.082;2022-09-17T04:25:55;49176.69;;;-142.28;100.00
4149;BME280;2088;51.032;7.082;2022-09-17T04:28:22;49170.91;;;-142.28;100.00
4149;BME280;2088;51.032;7.082;2022-09-17T04:30:49;49170.91;;;-142.28;100.00
4149;BME280;2088;51.032;7.082;2022-09-17T04:33:15;49176.69;;;-142.28;100.00
4149;BME280;2088;51.032;7.082;2022-09-17T04:35:42;49186.38;;;-142.28;100.00
4149;BME280;2088;51.032;7.082;2022-09-17T04:38:08;49192.19;;;-142.28;100.00
4149;BME280;2088;51.032;7.082;2022-09-17T04:40:37;49203.81;;;-142.28;100.00
4149;BME280;2088;51.032;7.082;2022-09-17T04:43:05;49190.25;;;-142.28;100.00
4149;BME280;2088;51.032;7.082;2022-09-17T04:45:34;49159.28;;;-142.28;100.00
4149;BME280;2088;51.032;7.082;2022-09-17T04:48:01;49139.91;;;-142.28;100.00
4149;BME280;2088;51.032;7.082;2022-09-17T04:50:27;49145.72;;;-142.28;100.00
4149;BME280;2088;51.032;7.082;2022-09-17T04:52:54;49167.03;;;-142.28;100.00
4149;BME280;2088;51.032;7.082;2022-09-17T04:55:21;49151.53;;;-142.28;100.00
4149;BME280;2088;51.032;7.082;2022-09-17T04:57:48;49145.72;;;-142.28;100.00
4149;BME280;2088;51.032;7.082;2022-09-17T05:00:15;49170.91;;;-142.28;100.00
4149;BME280;2088;51.032;7.082;2022-09-17T05:02:45;49151.53;;;-142.28;100.00
4149;BME280;2088;51.032;7.082;2022-09-17T05:05:13;49136.06;;;-142.28;100.00
4149;BME280;2088;51.032;7.082;2022-09-17T05:07:40;49157.34;;;-142.28;100.00
4149;BME280;2088;51.032;7.082;2022-09-17T05:10:08;49163.16;;;-142.28;100.00
4149;BME280;2088;51.032;7.082;2022-09-17T05:12:34;49178.63;;;-142.28;100.00
4149;BME280;2088;51.032;7.082;2022-09-17T05:15:01;49147.66;;;-142.28;100.00
4149;BME280;2088;51.032;7.082;2022-09-17T05:17:27;49137.97;;;-142.28;100.00
4149;BME280;2088;51.032;7.082;2022-09-17T05:19:55;49176.69;;;-142.28;100.00
4149;BME280;2088;51.032;7.082;2022-09-17T05:22:22;49151.53;;;-142.28;100.00
4149;BME280;2088;51.032;7.082;2022-09-17T05:24:48;49182.50;;;-142.28;100.00
4149;BME280;2088;51.032;7.082;2022-09-17T05:27:15;49157.34;;;-142.28;100.00
4149;BME280;2088;51.032;7.082;2022-09-17T05:29:42;49190.25;;;-142.28;100.00
4149;BME280;2088;51.032;7.082;2022-09-17T05:32:09;49209.59;;;-142.28;100.00
4149;BME280;2088;51.032;7.082;2022-09-17T05:34:35;49178.63;;;-142.28;100.00
4149;BME280;2088;51.032;7.082;2022-09-17T05:37:03;49182.50;;;-142.28;100.00
4149;BME280;2088;51.032;7.082;2022-09-17T05:39:30;49186.38;;;-142.28;100.00
4149;BME280;2088;51.032;7.082;2022-09-17T05:41:58;49178.63;;;-142.28;100.00
4149;BME280;2088;51.032;7.082;2022-09-17T05:44:24;49192.19;;;-142.28;100.00
4149;BME280;2088;51.032;7.082;2022-09-17T05:46:52;49217.34;;;-142.28;100.00
4149;BME280;2088;51.032;7.082;2022-09-17T05:49:18;49198.00;;;-142.28;100.00
4149;BME280;2088;51.032;7.082;2022-09-17T05:51:45;49209.59;;;-142.28;100.00
4149;BME280;2088;51.032;7.082;2022-09-17T05:54:13;49201.88;;;-142.28;100.00
4149;BME280;2088;51.032;7.082;2022-09-17T05:56:40;49176.69;;;-142.28;100.00
4149;BME280;2088;51.032;7.082;2022-09-17T05:59:06;49176.69;;;-142.28;100.00
4149;BME280;2088;51.032;7.082;2022-09-17T06:01:33;49198.00;;;-142.28;100.00
4149;BME280;2088;51.032;7.082;2022-09-17T06:03:59;49180.56;;;-142.28;100.00
4149;BME280;2088;51.032;7.082;2022-09-17T06:06:27;49219.28;;;-142.28;100.00
4149;BME280;2088;51.032;7.082;2022-09-17T06:08:55;49213.47;;;-142.28;100.00
4149;BME280;2088;51.032;7.082;2022-09-17T06:11:22;49172.84;;;-142.28;100.00
4149;BME280;2088;51.032;7.082;2022-09-17T06:13:51;49219.28;;;-142.28;100.00
4149;BME280;2088;51.032;7.082;2022-09-17T06:16:19;49203.81;;;-142.28;100.00
4149;BME280;2088;51.032;7.082;2022-09-17T06:18:46;49134.13;;;-142.28;100.00
4149;BME280;2088;51.032;7.082;2022-09-17T06:21:14;49157.34;;;-142.28;100.00
4149;BME280;2088;51.032;7.082;2022-09-17T06:23:41;49137.97;;;-142.28;100.00
4149;BME280;2088;51.032;7.082;2022-09-17T06:26:08;49101.22;;;-142.28;100.00
4149;BME280;2088;51.032;7.082;2022-09-17T06:28:36;49120.56;;;-142.28;100.00
4149;BME280;2088;51.032;7.082;2022-09-17T06:31:04;49066.38;;;-142.28;99.57
4149;BME280;2088;51.032;7.082;2022-09-17T06:33:34;49058.63;;;-142.28;99.43
4149;BME280;2088;51.032;7.082;2022-09-17T06:36:03;49035.38;;;-142.28;98.95
4149;BME280;2088;51.032;7.082;2022-09-17T06:38:33;49037.31;;;-142.28;98.97
4149;BME280;2088;51.032;7.082;2022-09-17T06:40:59;49035.38;;;-142.28;99.05
4149;BME280;2088;51.032;7.082;2022-09-17T06:43:26;49039.25;;;-142.28;99.70
4149;BME280;2088;51.032;7.082;2022-09-17T06:45:54;49050.88;;;-142.28;99.72
4149;BME280;2088;51.032;7.082;2022-09-17T06:48:22;49037.31;;;-142.28;99.83
4149;BME280;2088;51.032;7.082;2022-09-17T06:50:49;49023.78;;;-142.28;100.00
4149;BME280;2088;51.032;7.082;2022-09-17T06:53:18;49010.22;;;-142.28;100.00
4149;BME280;2088;51.032;7.082;2022-09-17T06:55:45;48998.63;;;-142.28;99.49
4149;BME280;2088;51.032;7.082;2022-09-17T06:58:11;49010.22;;;-142.28;100.00
4149;BME280;2088;51.032;7.082;2022-09-17T07:00:38;49017.97;;;-142.28;100.00
4149;BME280;2088;51.032;7.082;2022-09-17T07:03:06;48998.63;;;-142.28;100.00
4149;BME280;2088;51.032;7.082;2022-09-17T07:05:32;49039.25;;;-142.28;100.00
4149;BME280;2088;51.032;7.082;2022-09-17T07:08:00;49012.16;;;-142.28;100.00
4149;BME280;2088;51.032;7.082;2022-09-17T07:10:27;49029.59;;;-142.28;100.00
4149;BME280;2088;51.032;7.082;2022-09-17T07:12:54;49050.88;;;-142.28;99.95
4149;BME280;2088;51.032;7.082;2022-09-17T07:15:21;49004.41;;;-142.28;99.67
4149;BME280;2088;51.032;7.082;2022-09-17T07:17:47;49004.41;;;-142.28;100.00
4149;BME280;2088;51.032;7.082;2022-09-17T07:20:15;48998.63;;;-142.28;100.00
4149;BME280;2088;51.032;7.082;2022-09-17T07:22:41;49016.03;;;-142.28;100.00
4149;BME280;2088;51.032;7.082;2022-09-17T07:25:08;49004.41;;;-142.28;100.00
4149;BME280;2088;51.032;7.082;2022-09-17T07:27:35;49039.25;;;-142.28;100.00
4149;BME280;2088;51.032;7.082;2022-09-17T07:30:01;48973.44;;;-142.28;98.04
4149;BME280;2088;51.032;7.082;2022-09-17T07:32:28;48979.25;;;-142.28;97.09
4149;BME280;2088;51.032;7.082;2022-09-17T07:34:55;48936.66;;;-142.28;96.73
4149;BME280;2088;51.032;7.082;2022-09-17T07:37:23;48936.66;;;-142.28;95.85
4149;BME280;2088;51.032;7.082;2022-09-17T07:39:50;48946.34;;;-142.28;96.52
4149;BME280;2088;51.032;7.082;2022-09-17T07:42:16;48938.59;;;-142.28;96.56
4149;BME280;2088;51.032;7.082;2022-09-17T07:44:42;48921.19;;;-142.28;96.88
4149;BME280;2088;51.032;7.082;2022-09-17T07:47:10;48923.13;;;-142.28;95.33
4149;BME280;2088;51.032;7.082;2022-09-17T07:49:37;48894.09;;;-142.28;94.40
4149;BME280;2088;51.032;7.082;2022-09-17T07:52:03;48888.28;;;-142.28;95.14
4149;BME280;2088;51.032;7.082;2022-09-17T07:54:32;48897.97;;;-142.28;95.91
4149;BME280;2088;51.032;7.082;2022-09-17T07:56:58;48867.00;;;-142.28;94.01
4149;BME280;2088;51.032;7.082;2022-09-17T07:59:25;48830.22;;;-142.28;92.25
4149;BME280;2088;51.032;7.082;2022-09-17T08:01:51;48820.53;;;-142.28;91.41
4149;BME280;2088;51.032;7.082;2022-09-17T08:04:18;48752.78;;;-142.28;89.88
4149;BME280;2088;51.032;7.082;2022-09-17T08:06:44;48774.06;;;-142.28;90.88
4149;BME280;2088;51.032;7.082;2022-09-17T08:09:12;48779.88;;;-142.28;91.77
4149;BME280;2088;51.032;7.082;2022-09-17T08:11:41;48787.63;;;-142.28;90.90
4149;BME280;2088;51.032;7.082;2022-09-17T08:14:09;48750.84;;;-142.28;90.32
4149;BME280;2088;51.032;7.082;2022-09-17T08:16:36;48764.41;;;-142.28;90.88
4149;BME280;2088;51.032;7.082;2022-09-17T08:19:04;48710.19;;;-142.28;89.81
4149;BME280;2088;51.032;7.082;2022-09-17T08:21:31;48729.56;;;-142.28;86.98
4149;BME280;2088;51.032;7.082;2022-09-17T08:23:57;48700.53;;;-142.28;86.87
4149;BME280;2088;51.032;7.082;2022-09-17T08:26:24;48673.44;;;-142.28;85.77
4149;BME280;2088;51.032;7.082;2022-09-17T08:28:53;48646.34;;;-142.28;85.59
4149;BME280;2088;51.032;7.082;2022-09-17T08:31:22;48621.16;;;-142.28;84.90
4149;BME280;2088;51.032;7.082;2022-09-17T08:33:49;48640.53;;;-142.28;85.76
4149;BME280;2088;51.032;7.082;2022-09-17T08:36:17;48632.78;;;-142.28;84.72
4149;BME280;2088;51.032;7.082;2022-09-17T08:38:45;48574.72;;;-142.28;82.57
4149;BME280;2088;51.032;7.082;2022-09-17T08:41:20;48582.47;;;-142.28;82.44
4149;BME280;2088;51.032;7.082;2022-09-17T08:43:58;48537.94;;;-142.28;80.43
4149;BME280;2088;51.032;7.082;2022-09-17T08:46:27;48508.91;;;-142.28;78.90
4149;BME280;2088;51.032;7.082;2022-09-17T08:49:04;48493.44;;;-142.28;78.70
4149;BME280;2088;51.032;7.082;2022-09-17T08:51:38;48493.44;;;-142.28;78.73
4149;BME280;2088;51.032;7.082;2022-09-17T08:54:12;48466.34;;;-142.28;77.55
4149;BME280;2088;51.032;7.082;2022-09-17T08:56:44;48435.38;;;-142.28;76.77
4149;BME280;2088;51.032;7.082;2022-09-17T08:59:21;48472.16;;;-142.28;77.08
4149;BME280;2088;51.032;7.082;2022-09-17T09:01:56;48441.19;;;-142.28;77.74
4149;BME280;2088;51.032;7.082;2022-09-17T09:04:43;48423.75;;;-142.28;76.84
4149;BME280;2088;51.032;7.082;2022-09-17T09:07:17;48396.66;;;-142.28;74.29
4149;BME280;2088;51.032;7.082;2022-09-17T09:09:48;48377.31;;;-142.28;72.69
4149;BME280;2088;51.032;7.082;2022-09-17T09:12:21;48363.75;;;-142.28;74.56
4149;BME280;2088;51.032;7.082;2022-09-17T09:14:56;48383.13;;;-142.28;75.87
4149;BME280;2088;51.032;7.082;2022-09-17T09:17:30;48383.13;;;-142.28;75.84
4149;BME280;2088;51.032;7.082;2022-09-17T09:20:00;48381.19;;;-142.28;75.79
4149;BME280;2088;51.032;7.082;2022-09-17T09:22:39;48387.00;;;-142.28;75.03
4149;BME280;2088;51.032;7.082;2022-09-17T09:25:16;48363.75;;;-142.28;74.12
4149;BME280;2088;51.032;7.082;2022-09-17T09:27:46;48383.13;;;-142.28;74.48
4149;BME280;2088;51.032;7.082;2022-09-17T09:30:18;48357.97;;;-142.28;73.25
4149;BME280;2088;51.032;7.082;2022-09-17T09:32:55;48328.94;;;-142.28;72.15
4149;BME280;2088;51.032;7.082;2022-09-17T09:35:25;48323.13;;;-142.28;72.08
4149;BME280;2088;51.032;7.082;2022-09-17T09:37:56;48301.84;;;-142.28;71.46
4149;BME280;2088;51.032;7.082;2022-09-17T09:40:30;48311.50;;;-142.28;70.43
4149;BME280;2088;51.032;7.082;2022-09-17T09:43:00;48284.41;;;-142.28;69.03
4149;BME280;2088;51.032;7.082;2022-09-17T09:45:42;48274.75;;;-142.28;69.63
4149;BME280;2088;51.032;7.082;2022-09-17T09:48:16;48292.16;;;-142.28;69.15
4149;BME280;2088;51.032;7.082;2022-09-17T09:50:49;48303.78;;;-142.28;70.01
4149;BME280;2088;51.032;7.082;2022-09-17T09:53:31;48307.63;;;-142.28;70.08
4149;BME280;2088;51.032;7.082;2022-09-17T09:56:23;48280.53;;;-142.28;69.23
4149;BME280;2088;51.032;7.082;2022-09-17T09:58:53;48261.19;;;-142.28;67.79
4149;BME280;2088;51.032;7.082;2022-09-17T10:01:21;48276.66;;;-142.28;68.42
4149;BME280;2088;51.032;7.082;2022-09-17T10:03:51;48276.66;;;-142.28;68.51
4149;BME280;2088;51.032;7.082;2022-09-17T10:06:20;48245.72;;;-142.28;68.86
4149;BME280;2088;51.032;7.082;2022-09-17T10:09:08;48272.81;;;-142.28;67.37
4149;BME280;2088;51.032;7.082;2022-09-17T10:11:35;48259.25;;;-142.28;68.41
4149;BME280;2088;51.032;7.082;2022-09-17T10:14:13;48267.00;;;-142.28;66.10
4149;BME280;2088;51.032;7.082;2022-09-17T10:16:41;48261.19;;;-142.28;65.25
4149;BME280;2088;51.032;7.082;2022-09-17T10:19:12;48226.34;;;-142.28;66.03
4149;BME280;2088;51.032;7.082;2022-09-17T10:21:43;48261.19;;;-142.28;66.72
4149;BME280;2088;51.032;7.082;2022-09-17T10:24:18;48249.59;;;-142.28;68.03
4149;BME280;2088;51.032;7.082;2022-09-17T10:26:47;48241.84;;;-142.28;68.44
4149;BME280;2088;51.032;7.082;2022-09-17T10:29:15;48230.22;;;-142.28;68.00
4149;BME280;2088;51.032;7.082;2022-09-17T10:31:49;48237.97;;;-142.28;66.37
4149;BME280;2088;51.032;7.082;2022-09-17T10:34:19;48226.34;;;-142.28;65.73
4149;BME280;2088;51.032;7.082;2022-09-17T10:36:46;48272.81;;;-142.28;67.06
4149;BME280;2088;51.032;7.082;2022-09-17T10:39:29;48224.41;;;-142.28;67.53
4149;BME280;2088;51.032;7.082;2022-09-17T10:41:57;48232.16;;;-142.28;68.23
4149;BME280;2088;51.032;7.082;2022-09-17T10:44:25;48243.78;;;-142.28;67.14
4149;BME280;2088;51.032;7.082;2022-09-17T10:46:53;48245.72;;;-142.28;66.04
4149;BME280;2088;51.032;7.082;2022-09-17T10:49:33;48218.63;;;-142.28;66.18
4149;BME280;2088;51.032;7.082;2022-09-17T10:52:10;48230.22;;;-142.28;65.18
4149;BME280;2088;51.032;7.082;2022-09-17T10:55:08;48201.19;;;-142.28;63.49
4149;BME280;2088;51.032;7.082;2022-09-17T10:57:48;48191.53;;;-142.28;62.43
4149;BME280;2088;51.032;7.082;2022-09-17T11:00:19;48193.47;;;-142.28;61.31
4149;BME280;2088;51.032;7.082;2022-09-17T11:03:21;48191.53;;;-142.28;60.69
4149;BME280;2088;51.032;7.082;2022-09-17T11:06:29;48193.47;;;-142.28;60.77
4149;BME280;2088;51.032;7.082;2022-09-17T11:09:05;48203.13;;;-142.28;61.35
4149;BME280;2088;51.032;7.082;2022-09-17T11:11:44;48208.94;;;-142.28;63.13
4149;BME280;2088;51.032;7.082;2022-09-17T11:14:22;48189.59;;;-142.28;63.72
4149;BME280;2088;51.032;7.082;2022-09-17T11:17:05;48177.97;;;-142.28;65.30
4149;BME280;2088;51.032;7.082;2022-09-17T11:19:40;48205.06;;;-142.28;63.82
4149;BME280;2088;51.032;7.082;2022-09-17T11:22:16;48207.00;;;-142.28;62.82
4149;BME280;2088;51.032;7.082;2022-09-17T11:25:00;48201.19;;;-142.28;64.36
4149;BME280;2088;51.032;7.082;2022-09-17T11:27:40;48220.56;;;-142.28;64.67
4149;BME280;2088;51.032;7.082;2022-09-17T11:30:15;48203.13;;;-142.28;64.75
4149;BME280;2088;51.032;7.082;2022-09-17T11:33:07;48199.25;;;-142.28;63.19
4149;BME280;2088;51.032;7.082;2022-09-17T11:35:45;48193.47;;;-142.28;61.40
4149;BME280;2088;51.032;7.082;2022-09-17T11:38:17;48205.06;;;-142.28;60.41
4149;BME280;2088;51.032;7.082;2022-09-17T11:40:49;48176.03;;;-142.28;61.92
4149;BME280;2088;51.032;7.082;2022-09-17T11:43:21;48166.38;;;-142.28;61.38
4149;BME280;2088;51.032;7.082;2022-09-17T11:45:57;48212.81;;;-142.28;61.77
4149;BME280;2088;51.032;7.082;2022-09-17T11:48:31;48176.03;;;-142.28;61.32
4149;BME280;2088;51.032;7.082;2022-09-17T11:51:06;48170.22;;;-142.28;61.30
4149;BME280;2088;51.032;7.082;2022-09-17T11:53:36;48191.53;;;-142.28;61.17
4149;BME280;2088;51.032;7.082;2022-09-17T11:56:12;48160.56;;;-142.28;63.21
4149;BME280;2088;51.032;7.082;2022-09-17T11:58:42;48197.31;;;-142.28;67.46
4149;BME280;2088;51.032;7.082;2022-09-17T12:01:15;48226.34;;;-142.28;77.88
4149;BME280;2088;51.032;7.082;2022-09-17T12:03:49;48276.66;;;-142.28;85.75
4149;BME280;2088;51.032;7.082;2022-09-17T12:06:22;48315.38;;;-142.28;89.81
4149;BME280;2088;51.032;7.082;2022-09-17T12:08:54;48334.72;;;-142.28;90.11
4149;BME280;2088;51.032;7.082;2022-09-17T12:11:29;48373.44;;;-142.28;94.02
4149;BME280;2088;51.032;7.082;2022-09-17T12:14:03;48357.97;;;-142.28;92.32
4149;BME280;2088;51.032;7.082;2022-09-17T12:16:35;48377.31;;;-142.28;86.79
4149;BME280;2088;51.032;7.082;2022-09-17T12:19:09;48284.41;;;-142.28;78.12
4149;BME280;2088;51.032;7.082;2022-09-17T12:21:40;48284.41;;;-142.28;78.08
4149;BME280;2088;51.032;7.082;2022-09-17T12:24:11;48265.06;;;-142.28;72.45
4149;BME280;2088;51.032;7.082;2022-09-17T12:27:02;48237.97;;;-142.28;67.56
4149;BME280;2088;51.032;7.082;2022-09-17T12:29:42;48218.63;;;-142.28;65.04
4149;BME280;2088;51.032;7.082;2022-09-17T12:32:27;48191.53;;;-142.28;65.30
4149;BME280;2088;51.032;7.082;2022-09-17T12:35:02;48187.66;;;-142.28;63.75
4149;BME280;2088;51.032;7.082;2022-09-17T12:37:39;48176.03;;;-142.28;62.76
4149;BME280;2088;51.032;7.082;2022-09-17T12:40:16;48156.69;;;-142.28;60.23
4149;BME280;2088;51.032;7.082;2022-09-17T12:42:55;48145.06;;;-142.28;58.11
4149;BME280;2088;51.032;7.082;2022-09-17T12:45:43;48123.78;;;-142.28;55.82
4149;BME280;2088;51.032;7.082;2022-09-17T12:48:31;48143.13;;;-142.28;55.92
4149;BME280;2088;51.032;7.082;2022-09-17T12:51:09;48141.22;;;-142.28;58.59
4149;BME280;2088;51.032;7.082;2022-09-17T12:53:42;48102.50;;;-142.28;54.42
4149;BME280;2088;51.032;7.082;2022-09-17T12:56:24;48137.34;;;-142.28;54.05
4149;BME280;2088;51.032;7.082;2022-09-17T12:59:07;48125.72;;;-142.28;56.67
4149;BME280;2088;51.032;7.082;2022-09-17T13:01:38;48135.41;;;-142.28;58.45
4149;BME280;2088;51.032;7.082;2022-09-17T13:04:34;48162.50;;;-142.28;62.16
4149;BME280;2088;51.032;7.082;2022-09-17T13:10:21;48222.47;;;-142.28;76.69
4149;BME280;2088;51.032;7.082;2022-09-17T13:12:55;48247.66;;;-142.28;83.23
4149;BME280;2088;51.032;7.082;2022-09-17T13:15:45;48276.66;;;-142.28;87.89
4149;BME280;2088;51.032;7.082;2022-09-17T13:18:18;48319.25;;;-142.28;89.74
4149;BME280;2088;51.032;7.082;2022-09-17T13:20:57;48342.47;;;-142.28;91.08